sensor_id;sensor_type;location;lat;lon;timestamp;P1;durP1;ratioP1;P2;durP2;ratioP2
24521;SDS011;12680;57.804;12.190;2022-10-13T00:00:57;7.18;;;2.35;;
24521;SDS011;12680;57.804;12.190;2022-10-13T00:03:24;9.80;;;2.22;;
24521;SDS011;12680;57.804;12.190;2022-10-13T00:05:51;6.00;;;2.08;;
24521;SDS011;12680;57.804;12.190;2022-10-13T00:08:19;7.80;;;2.67;;
24521;SDS011;12680;57.804;12.190;2022-10-13T00:10:48;14.02;;;2.28;;
24521;SDS011;12680;57.804;12.190;2022-10-13T00:13:16;13.05;;;2.47;;
24521;SDS011;12680;57.804;12.190;2022-10-13T00:15:44;8.35;;;2.20;;
24521;SDS011;12680;57.804;12.190;2022-10-13T00:18:14;9.10;;;2.53;;
24521;SDS011;12680;57.804;12.190;2022-10-13T00:20:43;8.13;;;2.25;;
24521;SDS011;12680;57.804;12.190;2022-10-13T00:23:12;7.55;;;2.28;;
24521;SDS011;12680;57.804;12.190;2022-10-13T00:25:41;7.78;;;2.33;;
24521;SDS011;12680;57.804;12.190;2022-10-13T00:28:09;6.05;;;2.30;;
24521;SDS011;12680;57.804;12.190;2022-10-13T00:30:37;10.02;;;2.67;;
24521;SDS011;12680;57.804;12.190;2022-10-13T00:33:06;11.25;;;2.00;;
24521;SDS011;12680;57.804;12.190;2022-10-13T00:35:38;8.73;;;1.67;;
24521;SDS011;12680;57.804;12.190;2022-10-13T00:38:10;4.55;;;2.00;;
24521;SDS011;12680;57.804;12.190;2022-10-13T00:40:47;5.35;;;1.70;;
24521;SDS011;12680;57.804;12.190;2022-10-13T00:43:17;10.93;;;2.08;;
24521;SDS011;12680;57.804;12.190;2022-10-13T00:45:49;6.18;;;1.80;;
24521;SDS011;12680;57.804;12.190;2022-10-13T00:48:18;8.40;;;1.67;;
24521;SDS011;12680;57.804;12.190;2022-10-13T00:50:49;9.13;;;2.05;;
24521;SDS011;12680;57.804;12.190;2022-10-13T00:53:17;6.82;;;1.55;;
24521;SDS011;12680;57.804;12.190;2022-10-13T00:55:46;10.68;;;1.60;;
24521;SDS011;12680;57.804;12.190;2022-10-13T00:58:15;8.38;;;1.90;;
24521;SDS011;12680;57.804;12.190;2022-10-13T01:00:45;7.78;;;2.17;;
24521;SDS011;12680;57.804;12.190;2022-10-13T01:03:14;7.85;;;1.95;;
24521;SDS011;12680;57.804;12.190;2022-10-13T01:05:42;5.60;;;1.90;;
24521;SDS011;12680;57.804;12.190;2022-10-13T01:08:11;11.70;;;1.83;;
24521;SDS011;12680;57.804;12.190;2022-10-13T01:16:00;7.13;;;2.00;;
24521;SDS011;12680;57.804;12.190;2022-10-13T01:27:12;14.18;;;2.55;;
24521;SDS011;12680;57.804;12.190;2022-10-13T01:35:30;13.73;;;2.47;;
24521;SDS011;12680;57.804;12.190;2022-10-13T01:41:01;12.02;;;2.20;;
24521;SDS011;12680;57.804;12.190;2022-10-13T01:43:44;12.10;;;2.85;;
24521;SDS011;12680;57.804;12.190;2022-10-13T01:46:21;5.72;;;1.80;;
24521;SDS011;12680;57.804;12.190;2022-10-13T01:48:52;10.80;;;2.35;;
24521;SDS011;12680;57.804;12.190;2022-10-13T01:53:52;5.38;;;1.95;;
24521;SDS011;12680;57.804;12.190;2022-10-13T01:56:19;11.00;;;2.65;;
24521;SDS011;12680;57.804;12.190;2022-10-13T01:58:47;6.90;;;2.75;;
24521;SDS011;12680;57.804;12.190;2022-10-13T02:06:37;8.45;;;3.13;;
24521;SDS011;12680;57.804;12.190;2022-10-13T02:09:31;10.82;;;2.63;;
24521;SDS011;12680;57.804;12.190;2022-10-13T02:12:58;9.68;;;2.63;;
24521;SDS011;12680;57.804;12.190;2022-10-13T02:15:12;8.00;;;2.60;;
24521;SDS011;12680;57.804;12.190;2022-10-13T02:17:43;19.17;;;3.47;;
24521;SDS011;12680;57.804;12.190;2022-10-13T02:20:10;10.40;;;2.95;;
24521;SDS011;12680;57.804;12.190;2022-10-13T02:22:42;10.00;;;2.75;;
24521;SDS011;12680;57.804;12.190;2022-10-13T02:25:12;8.43;;;2.78;;
24521;SDS011;12680;57.804;12.190;2022-10-13T02:27:39;12.00;;;3.05;;
24521;SDS011;12680;57.804;12.190;2022-10-13T02:30:07;10.98;;;2.70;;
24521;SDS011;12680;57.804;12.190;2022-10-13T02:32:34;18.00;;;3.28;;
24521;SDS011;12680;57.804;12.190;2022-10-13T02:35:01;16.75;;;3.38;;
24521;SDS011;12680;57.804;12.190;2022-10-13T02:37:29;10.50;;;2.88;;
24521;SDS011;12680;57.804;12.190;2022-10-13T02:39:56;11.52;;;2.78;;
24521;SDS011;12680;57.804;12.190;2022-10-13T02:42:23;13.65;;;3.30;;
24521;SDS011;12680;57.804;12.190;2022-10-13T02:44:50;15.85;;;3.13;;
24521;SDS011;12680;57.804;12.190;2022-10-13T02:47:17;11.55;;;2.63;;
24521;SDS011;12680;57.804;12.190;2022-10-13T02:49:45;13.98;;;3.05;;
24521;SDS011;12680;57.804;12.190;2022-10-13T02:52:12;14.15;;;3.08;;
24521;SDS011;12680;57.804;12.190;2022-10-13T02:54:39;12.02;;;3.22;;
24521;SDS011;12680;57.804;12.190;2022-10-13T02:57:06;11.13;;;2.90;;
24521;SDS011;12680;57.804;12.190;2022-10-13T02:59:33;10.95;;;3.40;;
24521;SDS011;12680;57.804;12.190;2022-10-13T03:02:00;15.68;;;3.20;;
24521;SDS011;12680;57.804;12.190;2022-10-13T03:04:27;13.63;;;3.17;;
24521;SDS011;12680;57.804;12.190;2022-10-13T03:06:54;15.00;;;3.55;;
24521;SDS011;12680;57.804;12.190;2022-10-13T03:09:22;15.65;;;2.97;;
24521;SDS011;12680;57.804;12.190;2022-10-13T03:11:49;8.60;;;2.65;;
24521;SDS011;12680;57.804;12.190;2022-10-13T03:14:16;13.35;;;3.00;;
24521;SDS011;12680;57.804;12.190;2022-10-13T03:16:43;8.20;;;2.72;;
24521;SDS011;12680;57.804;12.190;2022-10-13T03:19:10;7.22;;;2.35;;
24521;SDS011;12680;57.804;12.190;2022-10-13T03:21:37;11.32;;;2.78;;
24521;SDS011;12680;57.804;12.190;2022-10-13T03:24:06;8.85;;;2.92;;
24521;SDS011;12680;57.804;12.190;2022-10-13T03:26:33;13.70;;;3.45;;
24521;SDS011;12680;57.804;12.190;2022-10-13T03:29:00;12.40;;;2.97;;
24521;SDS011;12680;57.804;12.190;2022-10-13T03:31:28;11.50;;;3.05;;
24521;SDS011;12680;57.804;12.190;2022-10-13T03:33:56;10.05;;;2.58;;
24521;SDS011;12680;57.804;12.190;2022-10-13T03:36:23;11.57;;;2.58;;
24521;SDS011;12680;57.804;12.190;2022-10-13T03:38:50;12.48;;;2.95;;
24521;SDS011;12680;57.804;12.190;2022-10-13T03:41:18;7.72;;;2.58;;
24521;SDS011;12680;57.804;12.190;2022-10-13T03:43:45;11.77;;;2.60;;
24521;SDS011;12680;57.804;12.190;2022-10-13T03:46:13;11.35;;;2.90;;
24521;SDS011;12680;57.804;12.190;2022-10-13T03:48:42;13.52;;;2.85;;
24521;SDS011;12680;57.804;12.190;2022-10-13T03:51:10;11.35;;;2.60;;
24521;SDS011;12680;57.804;12.190;2022-10-13T03:53:43;8.13;;;3.08;;
24521;SDS011;12680;57.804;12.190;2022-10-13T03:56:13;13.38;;;3.03;;
24521;SDS011;12680;57.804;12.190;2022-10-13T03:58:43;12.82;;;2.97;;
24521;SDS011;12680;57.804;12.190;2022-10-13T04:01:11;11.85;;;2.75;;
24521;SDS011;12680;57.804;12.190;2022-10-13T04:03:39;15.23;;;3.03;;
24521;SDS011;12680;57.804;12.190;2022-10-13T04:06:06;14.75;;;2.60;;
24521;SDS011;12680;57.804;12.190;2022-10-13T04:08:35;12.10;;;2.88;;
24521;SDS011;12680;57.804;12.190;2022-10-13T04:11:03;16.65;;;3.63;;
24521;SDS011;12680;57.804;12.190;2022-10-13T04:13:32;15.38;;;3.03;;
24521;SDS011;12680;57.804;12.190;2022-10-13T04:16:01;10.55;;;2.92;;
24521;SDS011;12680;57.804;12.190;2022-10-13T04:18:29;10.55;;;3.08;;
24521;SDS011;12680;57.804;12.190;2022-10-13T04:20:56;13.50;;;3.15;;
24521;SDS011;12680;57.804;12.190;2022-10-13T04:23:24;13.20;;;2.65;;
24521;SDS011;12680;57.804;12.190;2022-10-13T04:25:51;12.02;;;2.95;;
24521;SDS011;12680;57.804;12.190;2022-10-13T04:28:18;14.63;;;2.90;;
24521;SDS011;12680;57.804;12.190;2022-10-13T04:30:45;10.90;;;2.55;;
24521;SDS011;12680;57.804;12.190;2022-10-13T04:33:14;13.07;;;2.72;;
24521;SDS011;12680;57.804;12.190;2022-10-13T04:35:42;12.48;;;3.35;;
24521;SDS011;12680;57.804;12.190;2022-10-13T04:38:09;10.30;;;3.58;;
24521;SDS011;12680;57.804;12.190;2022-10-13T04:40:36;14.68;;;3.50;;
24521;SDS011;12680;57.804;12.190;2022-10-13T04:43:03;13.55;;;2.83;;
24521;SDS011;12680;57.804;12.190;2022-10-13T04:45:30;7.47;;;3.00;;
24521;SDS011;12680;57.804;12.190;2022-10-13T04:47:59;12.23;;;3.35;;
24521;SDS011;12680;57.804;12.190;2022-10-13T04:50:27;12.52;;;3.20;;
24521;SDS011;12680;57.804;12.190;2022-10-13T04:52:54;16.35;;;3.90;;
24521;SDS011;12680;57.804;12.190;2022-10-13T04:55:21;14.50;;;3.05;;
24521;SDS011;12680;57.804;12.190;2022-10-13T04:57:48;15.52;;;3.65;;
24521;SDS011;12680;57.804;12.190;2022-10-13T05:00:15;15.07;;;3.10;;
24521;SDS011;12680;57.804;12.190;2022-10-13T05:02:43;18.52;;;4.03;;
24521;SDS011;12680;57.804;12.190;2022-10-13T05:05:10;13.85;;;3.10;;
24521;SDS011;12680;57.804;12.190;2022-10-13T05:07:37;12.38;;;3.67;;
24521;SDS011;12680;57.804;12.190;2022-10-13T05:10:04;11.45;;;3.28;;
24521;SDS011;12680;57.804;12.190;2022-10-13T05:12:31;10.90;;;2.97;;
24521;SDS011;12680;57.804;12.190;2022-10-13T05:14:59;9.65;;;3.95;;
24521;SDS011;12680;57.804;12.190;2022-10-13T05:17:28;12.05;;;2.90;;
24521;SDS011;12680;57.804;12.190;2022-10-13T05:20:00;18.50;;;3.25;;
24521;SDS011;12680;57.804;12.190;2022-10-13T05:22:28;7.47;;;3.00;;
24521;SDS011;12680;57.804;12.190;2022-10-13T05:24:55;16.70;;;3.50;;
24521;SDS011;12680;57.804;12.190;2022-10-13T05:27:22;10.95;;;3.38;;
24521;SDS011;12680;57.804;12.190;2022-10-13T05:29:49;11.02;;;3.08;;
24521;SDS011;12680;57.804;12.190;2022-10-13T05:32:16;17.58;;;3.85;;
24521;SDS011;12680;57.804;12.190;2022-10-13T05:34:46;11.27;;;3.45;;
24521;SDS011;12680;57.804;12.190;2022-10-13T05:37:14;15.80;;;3.40;;
24521;SDS011;12680;57.804;12.190;2022-10-13T05:39:42;13.80;;;3.38;;
24521;SDS011;12680;57.804;12.190;2022-10-13T05:42:14;12.80;;;3.30;;
24521;SDS011;12680;57.804;12.190;2022-10-13T05:44:42;13.30;;;3.67;;
24521;SDS011;12680;57.804;12.190;2022-10-13T05:47:09;20.35;;;3.65;;
24521;SDS011;12680;57.804;12.190;2022-10-13T05:49:36;10.57;;;3.80;;
24521;SDS011;12680;57.804;12.190;2022-10-13T05:52:06;15.45;;;3.33;;
24521;SDS011;12680;57.804;12.190;2022-10-13T05:54:42;12.27;;;3.50;;
24521;SDS011;12680;57.804;12.190;2022-10-13T05:57:35;14.32;;;3.10;;
24521;SDS011;12680;57.804;12.190;2022-10-13T06:00:08;12.65;;;4.00;;
24521;SDS011;12680;57.804;12.190;2022-10-13T06:02:45;12.70;;;4.63;;
24521;SDS011;12680;57.804;12.190;2022-10-13T06:05:20;13.48;;;3.38;;
24521;SDS011;12680;57.804;12.190;2022-10-13T06:07:49;14.10;;;3.90;;
24521;SDS011;12680;57.804;12.190;2022-10-13T06:10:16;16.05;;;3.70;;
24521;SDS011;12680;57.804;12.190;2022-10-13T06:12:44;13.85;;;3.47;;
24521;SDS011;12680;57.804;12.190;2022-10-13T06:15:11;11.43;;;3.47;;
24521;SDS011;12680;57.804;12.190;2022-10-13T06:17:38;11.65;;;3.50;;
24521;SDS011;12680;57.804;12.190;2022-10-13T06:20:06;16.20;;;3.80;;
24521;SDS011;12680;57.804;12.190;2022-10-13T06:22:34;18.33;;;3.63;;
24521;SDS011;12680;57.804;12.190;2022-10-13T06:25:04;13.43;;;4.32;;
24521;SDS011;12680;57.804;12.190;2022-10-13T06:27:33;10.25;;;3.53;;
24521;SDS011;12680;57.804;12.190;2022-10-13T06:30:00;11.52;;;3.13;;
24521;SDS011;12680;57.804;12.190;2022-10-13T06:32:27;10.05;;;3.15;;
24521;SDS011;12680;57.804;12.190;2022-10-13T06:34:54;17.08;;;4.00;;
24521;SDS011;12680;57.804;12.190;2022-10-13T06:37:21;10.48;;;3.28;;
24521;SDS011;12680;57.804;12.190;2022-10-13T06:39:52;14.10;;;3.70;;
24521;SDS011;12680;57.804;12.190;2022-10-13T06:42:19;13.82;;;3.67;;
24521;SDS011;12680;57.804;12.190;2022-10-13T06:44:47;12.38;;;3.42;;
24521;SDS011;12680;57.804;12.190;2022-10-13T06:47:14;12.32;;;3.33;;
24521;SDS011;12680;57.804;12.190;2022-10-13T06:49:41;14.88;;;3.53;;
24521;SDS011;12680;57.804;12.190;2022-10-13T06:52:09;11.82;;;3.05;;
24521;SDS011;12680;57.804;12.190;2022-10-13T06:54:36;12.75;;;3.20;;
24521;SDS011;12680;57.804;12.190;2022-10-13T06:57:04;10.32;;;3.42;;
24521;SDS011;12680;57.804;12.190;2022-10-13T06:59:31;12.52;;;3.55;;
24521;SDS011;12680;57.804;12.190;2022-10-13T07:01:59;9.23;;;3.47;;
24521;SDS011;12680;57.804;12.190;2022-10-13T07:04:26;13.63;;;3.78;;
24521;SDS011;12680;57.804;12.190;2022-10-13T07:06:54;9.38;;;3.60;;
24521;SDS011;12680;57.804;12.190;2022-10-13T07:09:22;11.95;;;3.50;;
24521;SDS011;12680;57.804;12.190;2022-10-13T07:11:49;13.27;;;3.05;;
24521;SDS011;12680;57.804;12.190;2022-10-13T07:14:16;13.65;;;3.40;;
24521;SDS011;12680;57.804;12.190;2022-10-13T07:16:43;13.40;;;3.13;;
24521;SDS011;12680;57.804;12.190;2022-10-13T07:19:10;15.23;;;4.80;;
24521;SDS011;12680;57.804;12.190;2022-10-13T07:21:37;11.43;;;2.83;;
24521;SDS011;12680;57.804;12.190;2022-10-13T07:24:05;11.27;;;3.10;;
24521;SDS011;12680;57.804;12.190;2022-10-13T07:26:33;11.93;;;3.10;;
24521;SDS011;12680;57.804;12.190;2022-10-13T07:29:00;11.68;;;2.78;;
24521;SDS011;12680;57.804;12.190;2022-10-13T07:31:28;14.18;;;3.28;;
24521;SDS011;12680;57.804;12.190;2022-10-13T07:33:57;15.43;;;3.42;;
24521;SDS011;12680;57.804;12.190;2022-10-13T07:36:25;12.13;;;3.13;;
24521;SDS011;12680;57.804;12.190;2022-10-13T07:38:53;10.10;;;3.50;;
24521;SDS011;12680;57.804;12.190;2022-10-13T07:41:20;17.95;;;3.40;;
24521;SDS011;12680;57.804;12.190;2022-10-13T07:43:47;16.90;;;3.70;;
24521;SDS011;12680;57.804;12.190;2022-10-13T07:46:14;14.23;;;3.30;;
24521;SDS011;12680;57.804;12.190;2022-10-13T07:48:41;13.95;;;3.20;;
24521;SDS011;12680;57.804;12.190;2022-10-13T07:51:10;13.65;;;3.63;;
24521;SDS011;12680;57.804;12.190;2022-10-13T07:53:38;12.82;;;3.13;;
24521;SDS011;12680;57.804;12.190;2022-10-13T07:56:09;14.20;;;3.20;;
24521;SDS011;12680;57.804;12.190;2022-10-13T07:58:37;15.82;;;3.67;;
24521;SDS011;12680;57.804;12.190;2022-10-13T08:01:06;10.98;;;3.00;;
24521;SDS011;12680;57.804;12.190;2022-10-13T08:03:34;12.13;;;3.08;;
24521;SDS011;12680;57.804;12.190;2022-10-13T08:06:02;8.65;;;2.45;;
24521;SDS011;12680;57.804;12.190;2022-10-13T08:08:30;12.48;;;2.58;;
24521;SDS011;12680;57.804;12.190;2022-10-13T08:11:04;12.27;;;2.72;;
24521;SDS011;12680;57.804;12.190;2022-10-13T08:13:33;9.18;;;3.17;;
24521;SDS011;12680;57.804;12.190;2022-10-13T08:16:00;8.18;;;2.40;;
24521;SDS011;12680;57.804;12.190;2022-10-13T08:18:28;11.23;;;3.00;;
24521;SDS011;12680;57.804;12.190;2022-10-13T08:20:58;11.13;;;3.13;;
24521;SDS011;12680;57.804;12.190;2022-10-13T08:23:47;6.15;;;2.78;;
24521;SDS011;12680;57.804;12.190;2022-10-13T08:26:19;11.48;;;2.78;;
24521;SDS011;12680;57.804;12.190;2022-10-13T08:28:49;15.35;;;3.40;;
24521;SDS011;12680;57.804;12.190;2022-10-13T08:31:36;7.97;;;2.72;;
24521;SDS011;12680;57.804;12.190;2022-10-13T08:34:03;16.83;;;3.22;;
24521;SDS011;12680;57.804;12.190;2022-10-13T08:36:30;6.88;;;2.10;;
24521;SDS011;12680;57.804;12.190;2022-10-13T08:38:57;11.82;;;3.05;;
24521;SDS011;12680;57.804;12.190;2022-10-13T08:41:25;7.97;;;2.65;;
24521;SDS011;12680;57.804;12.190;2022-10-13T08:44:00;11.02;;;3.20;;
24521;SDS011;12680;57.804;12.190;2022-10-13T08:49:56;7.47;;;2.35;;
24521;SDS011;12680;57.804;12.190;2022-10-13T08:52:41;12.02;;;2.97;;
24521;SDS011;12680;57.804;12.190;2022-10-13T08:55:18;13.55;;;2.83;;
24521;SDS011;12680;57.804;12.190;2022-10-13T08:57:53;12.23;;;2.70;;
24521;SDS011;12680;57.804;12.190;2022-10-13T09:00:20;8.98;;;2.30;;
24521;SDS011;12680;57.804;12.190;2022-10-13T09:02:47;10.60;;;2.85;;
24521;SDS011;12680;57.804;12.190;2022-10-13T09:05:42;10.85;;;2.90;;
24521;SDS011;12680;57.804;12.190;2022-10-13T09:08:12;7.65;;;2.65;;
24521;SDS011;12680;57.804;12.190;2022-10-13T09:10:45;14.23;;;3.28;;
24521;SDS011;12680;57.804;12.190;2022-10-13T09:13:14;11.60;;;2.67;;
24521;SDS011;12680;57.804;12.190;2022-10-13T09:15:42;8.02;;;2.53;;
24521;SDS011;12680;57.804;12.190;2022-10-13T09:18:11;16.90;;;2.88;;
24521;SDS011;12680;57.804;12.190;2022-10-13T09:20:39;11.52;;;2.97;;
24521;SDS011;12680;57.804;12.190;2022-10-13T09:25:44;9.82;;;2.72;;
24521;SDS011;12680;57.804;12.190;2022-10-13T09:28:21;11.52;;;3.42;;
24521;SDS011;12680;57.804;12.190;2022-10-13T09:33:40;9.23;;;2.53;;
24521;SDS011;12680;57.804;12.190;2022-10-13T09:36:11;9.93;;;3.47;;
24521;SDS011;12680;57.804;12.190;2022-10-13T09:38:44;8.82;;;2.40;;
24521;SDS011;12680;57.804;12.190;2022-10-13T09:41:32;6.88;;;2.28;;
24521;SDS011;12680;57.804;12.190;2022-10-13T09:44:04;8.60;;;2.58;;
24521;SDS011;12680;57.804;12.190;2022-10-13T09:46:46;7.95;;;2.30;;
24521;SDS011;12680;57.804;12.190;2022-10-13T09:51:57;5.50;;;2.22;;
24521;SDS011;12680;57.804;12.190;2022-10-13T09:54:51;13.93;;;3.40;;
24521;SDS011;12680;57.804;12.190;2022-10-13T10:00:24;8.27;;;3.30;;
24521;SDS011;12680;57.804;12.190;2022-10-13T10:03:01;9.55;;;2.45;;
24521;SDS011;12680;57.804;12.190;2022-10-13T10:11:49;9.43;;;2.83;;
24521;SDS011;12680;57.804;12.190;2022-10-13T10:14:21;7.63;;;2.38;;
24521;SDS011;12680;57.804;12.190;2022-10-13T10:19:58;5.10;;;2.22;;
24521;SDS011;12680;57.804;12.190;2022-10-13T10:22:55;8.18;;;2.25;;
24521;SDS011;12680;57.804;12.190;2022-10-13T10:37:15;10.75;;;2.85;;
24521;SDS011;12680;57.804;12.190;2022-10-13T10:45:18;9.30;;;2.53;;
24521;SDS011;12680;57.804;12.190;2022-10-13T10:47:50;10.55;;;2.42;;
24521;SDS011;12680;57.804;12.190;2022-10-13T10:50:24;5.47;;;2.13;;
24521;SDS011;12680;57.804;12.190;2022-10-13T10:58:36;11.52;;;2.47;;
24521;SDS011;12680;57.804;12.190;2022-10-13T11:01:27;7.50;;;2.35;;
24521;SDS011;12680;57.804;12.190;2022-10-13T11:07:11;6.95;;;2.65;;
24521;SDS011;12680;57.804;12.190;2022-10-13T11:17:29;11.18;;;2.88;;
24521;SDS011;12680;57.804;12.190;2022-10-13T11:19:57;7.32;;;2.40;;
24521;SDS011;12680;57.804;12.190;2022-10-13T11:22:26;6.40;;;2.67;;
24521;SDS011;12680;57.804;12.190;2022-10-13T11:24:56;5.38;;;2.22;;
24521;SDS011;12680;57.804;12.190;2022-10-13T11:41:40;7.22;;;2.63;;
24521;SDS011;12680;57.804;12.190;2022-10-13T11:47:16;10.50;;;2.42;;
24521;SDS011;12680;57.804;12.190;2022-10-13T11:56:16;11.25;;;2.72;;
24521;SDS011;12680;57.804;12.190;2022-10-13T11:59:17;8.88;;;2.78;;
24521;SDS011;12680;57.804;12.190;2022-10-13T12:01:51;12.07;;;2.67;;
24521;SDS011;12680;57.804;12.190;2022-10-13T12:04:58;8.77;;;2.97;;
24521;SDS011;12680;57.804;12.190;2022-10-13T12:07:31;10.25;;;3.13;;
24521;SDS011;12680;57.804;12.190;2022-10-13T12:10:03;6.75;;;3.03;;
24521;SDS011;12680;57.804;12.190;2022-10-13T12:12:33;10.07;;;2.67;;
24521;SDS011;12680;57.804;12.190;2022-10-13T12:15:00;9.88;;;3.03;;
24521;SDS011;12680;57.804;12.190;2022-10-13T12:17:32;12.20;;;3.92;;
24521;SDS011;12680;57.804;12.190;2022-10-13T12:20:19;12.05;;;4.05;;
24521;SDS011;12680;57.804;12.190;2022-10-13T12:22:49;9.30;;;3.65;;
24521;SDS011;12680;57.804;12.190;2022-10-13T12:25:19;14.23;;;3.58;;
24521;SDS011;12680;57.804;12.190;2022-10-13T12:27:48;13.95;;;3.25;;
24521;SDS011;12680;57.804;12.190;2022-10-13T12:30:41;10.25;;;3.10;;
24521;SDS011;12680;57.804;12.190;2022-10-13T12:33:16;10.25;;;3.17;;
24521;SDS011;12680;57.804;12.190;2022-10-13T12:35:51;9.73;;;4.18;;
24521;SDS011;12680;57.804;12.190;2022-10-13T12:38:19;14.93;;;4.75;;
24521;SDS011;12680;57.804;12.190;2022-10-13T12:40:48;11.10;;;3.70;;
24521;SDS011;12680;57.804;12.190;2022-10-13T12:43:21;10.82;;;3.47;;
24521;SDS011;12680;57.804;12.190;2022-10-13T12:45:50;14.43;;;4.40;;
24521;SDS011;12680;57.804;12.190;2022-10-13T12:48:31;9.63;;;3.28;;
24521;SDS011;12680;57.804;12.190;2022-10-13T12:51:07;11.48;;;3.45;;
24521;SDS011;12680;57.804;12.190;2022-10-13T12:53:47;10.43;;;3.67;;
24521;SDS011;12680;57.804;12.190;2022-10-13T12:56:27;12.13;;;3.95;;
24521;SDS011;12680;57.804;12.190;2022-10-13T12:58:58;15.98;;;4.20;;
24521;SDS011;12680;57.804;12.190;2022-10-13T13:01:32;12.95;;;4.25;;
24521;SDS011;12680;57.804;12.190;2022-10-13T13:04:02;9.85;;;3.97;;
24521;SDS011;12680;57.804;12.190;2022-10-13T13:07:04;19.98;;;4.15;;
24521;SDS011;12680;57.804;12.190;2022-10-13T13:10:00;16.48;;;3.92;;
24521;SDS011;12680;57.804;12.190;2022-10-13T13:12:34;10.75;;;3.60;;
24521;SDS011;12680;57.804;12.190;2022-10-13T13:15:19;12.05;;;4.00;;
24521;SDS011;12680;57.804;12.190;2022-10-13T13:17:47;11.90;;;3.22;;
24521;SDS011;12680;57.804;12.190;2022-10-13T13:20:30;14.57;;;4.95;;
24521;SDS011;12680;57.804;12.190;2022-10-13T13:22:59;12.07;;;4.80;;
24521;SDS011;12680;57.804;12.190;2022-10-13T13:25:26;9.27;;;4.03;;
24521;SDS011;12680;57.804;12.190;2022-10-13T13:27:54;11.95;;;4.80;;
24521;SDS011;12680;57.804;12.190;2022-10-13T13:30:22;9.07;;;3.25;;
24521;SDS011;12680;57.804;12.190;2022-10-13T13:32:50;12.77;;;4.78;;
24521;SDS011;12680;57.804;12.190;2022-10-13T13:35:17;9.27;;;4.65;;
24521;SDS011;12680;57.804;12.190;2022-10-13T13:37:45;18.33;;;4.65;;
24521;SDS011;12680;57.804;12.190;2022-10-13T13:40:19;10.27;;;4.47;;
24521;SDS011;12680;57.804;12.190;2022-10-13T13:42:47;11.20;;;4.90;;
24521;SDS011;12680;57.804;12.190;2022-10-13T13:45:15;8.18;;;3.53;;
24521;SDS011;12680;57.804;12.190;2022-10-13T13:47:45;12.45;;;4.00;;
24521;SDS011;12680;57.804;12.190;2022-10-13T13:50:17;14.93;;;4.65;;
24521;SDS011;12680;57.804;12.190;2022-10-13T13:52:48;10.57;;;4.00;;
24521;SDS011;12680;57.804;12.190;2022-10-13T13:55:15;13.95;;;3.88;;
24521;SDS011;12680;57.804;12.190;2022-10-13T13:57:42;10.93;;;3.33;;
24521;SDS011;12680;57.804;12.190;2022-10-13T14:00:10;12.75;;;3.97;;
24521;SDS011;12680;57.804;12.190;2022-10-13T14:02:39;15.10;;;4.68;;
24521;SDS011;12680;57.804;12.190;2022-10-13T14:05:08;15.07;;;4.43;;
24521;SDS011;12680;57.804;12.190;2022-10-13T14:07:37;10.60;;;3.47;;
24521;SDS011;12680;57.804;12.190;2022-10-13T14:10:05;11.88;;;3.88;;
24521;SDS011;12680;57.804;12.190;2022-10-13T14:12:33;11.18;;;3.80;;
24521;SDS011;12680;57.804;12.190;2022-10-13T14:15:01;12.68;;;3.20;;
24521;SDS011;12680;57.804;12.190;2022-10-13T14:17:28;12.05;;;4.22;;
24521;SDS011;12680;57.804;12.190;2022-10-13T14:19:56;8.30;;;3.45;;
24521;SDS011;12680;57.804;12.190;2022-10-13T14:22:23;12.90;;;4.20;;
24521;SDS011;12680;57.804;12.190;2022-10-13T14:24:50;8.40;;;3.67;;
24521;SDS011;12680;57.804;12.190;2022-10-13T14:27:18;18.23;;;4.38;;
24521;SDS011;12680;57.804;12.190;2022-10-13T14:29:45;12.00;;;4.10;;
24521;SDS011;12680;57.804;12.190;2022-10-13T14:32:12;9.52;;;3.60;;
24521;SDS011;12680;57.804;12.190;2022-10-13T14:34:39;21.00;;;6.13;;
24521;SDS011;12680;57.804;12.190;2022-10-13T14:37:06;10.88;;;4.10;;
24521;SDS011;12680;57.804;12.190;2022-10-13T14:39:33;13.30;;;3.90;;
24521;SDS011;12680;57.804;12.190;2022-10-13T14:42:01;16.50;;;5.88;;
24521;SDS011;12680;57.804;12.190;2022-10-13T14:44:28;40.65;;;18.48;;
24521;SDS011;12680;57.804;12.190;2022-10-13T14:46:55;45.13;;;23.38;;
24521;SDS011;12680;57.804;12.190;2022-10-13T14:49:22;38.85;;;23.60;;
24521;SDS011;12680;57.804;12.190;2022-10-13T14:51:49;16.13;;;8.18;;
24521;SDS011;12680;57.804;12.190;2022-10-13T14:54:16;13.55;;;5.65;;
24521;SDS011;12680;57.804;12.190;2022-10-13T14:56:43;11.80;;;4.65;;
24521;SDS011;12680;57.804;12.190;2022-10-13T14:59:11;10.00;;;3.78;;
24521;SDS011;12680;57.804;12.190;2022-10-13T15:01:38;14.50;;;3.70;;
24521;SDS011;12680;57.804;12.190;2022-10-13T15:04:09;12.85;;;3.60;;
24521;SDS011;12680;57.804;12.190;2022-10-13T15:06:37;17.45;;;3.80;;
24521;SDS011;12680;57.804;12.190;2022-10-13T15:09:05;11.55;;;3.20;;
24521;SDS011;12680;57.804;12.190;2022-10-13T15:11:34;10.82;;;3.95;;
24521;SDS011;12680;57.804;12.190;2022-10-13T15:14:02;13.02;;;3.80;;
24521;SDS011;12680;57.804;12.190;2022-10-13T15:16:29;11.40;;;3.35;;
24521;SDS011;12680;57.804;12.190;2022-10-13T15:19:02;18.33;;;3.13;;
24521;SDS011;12680;57.804;12.190;2022-10-13T15:21:29;9.85;;;3.17;;
24521;SDS011;12680;57.804;12.190;2022-10-13T15:23:57;8.07;;;3.33;;
24521;SDS011;12680;57.804;12.190;2022-10-13T15:26:24;12.43;;;4.18;;
24521;SDS011;12680;57.804;12.190;2022-10-13T15:28:51;12.85;;;3.60;;
24521;SDS011;12680;57.804;12.190;2022-10-13T15:31:19;8.02;;;3.83;;
24521;SDS011;12680;57.804;12.190;2022-10-13T15:33:48;13.18;;;4.35;;
24521;SDS011;12680;57.804;12.190;2022-10-13T15:36:17;12.82;;;3.30;;
24521;SDS011;12680;57.804;12.190;2022-10-13T15:38:45;11.70;;;3.80;;
24521;SDS011;12680;57.804;12.190;2022-10-13T15:41:12;10.68;;;3.20;;
24521;SDS011;12680;57.804;12.190;2022-10-13T15:43:40;12.70;;;3.50;;
24521;SDS011;12680;57.804;12.190;2022-10-13T15:46:09;11.15;;;3.55;;
24521;SDS011;12680;57.804;12.190;2022-10-13T15:48:38;15.80;;;4.15;;
24521;SDS011;12680;57.804;12.190;2022-10-13T15:51:11;10.48;;;4.40;;
24521;SDS011;12680;57.804;12.190;2022-10-13T15:53:41;10.63;;;5.53;;
24521;SDS011;12680;57.804;12.190;2022-10-13T15:56:08;11.07;;;4.35;;
24521;SDS011;12680;57.804;12.190;2022-10-13T15:58:35;12.98;;;3.92;;
24521;SDS011;12680;57.804;12.190;2022-10-13T16:01:06;11.73;;;4.32;;
24521;SDS011;12680;57.804;12.190;2022-10-13T16:03:34;12.23;;;4.55;;
24521;SDS011;12680;57.804;12.190;2022-10-13T16:06:02;10.85;;;4.60;;
24521;SDS011;12680;57.804;12.190;2022-10-13T16:08:31;11.25;;;4.22;;
24521;SDS011;12680;57.804;12.190;2022-10-13T16:11:05;16.77;;;4.22;;
24521;SDS011;12680;57.804;12.190;2022-10-13T16:13:34;13.90;;;4.65;;
24521;SDS011;12680;57.804;12.190;2022-10-13T16:16:01;11.75;;;3.55;;
24521;SDS011;12680;57.804;12.190;2022-10-13T16:18:32;14.35;;;4.22;;
24521;SDS011;12680;57.804;12.190;2022-10-13T16:21:06;8.02;;;3.58;;
24521;SDS011;12680;57.804;12.190;2022-10-13T16:23:39;17.45;;;5.65;;
24521;SDS011;12680;57.804;12.190;2022-10-13T16:26:07;13.65;;;5.25;;
24521;SDS011;12680;57.804;12.190;2022-10-13T16:28:34;12.95;;;5.97;;
24521;SDS011;12680;57.804;12.190;2022-10-13T16:31:06;13.23;;;5.68;;
24521;SDS011;12680;57.804;12.190;2022-10-13T16:33:38;18.48;;;5.82;;
24521;SDS011;12680;57.804;12.190;2022-10-13T16:36:07;10.40;;;5.18;;